sensor_id;sensor_type;location;lat;lon;timestamp;pressure;altitude;pressure_sealevel;temperature;humidity
7524;BME280;3803;51.666;7.630;2022-12-18T00:00:05;102344.16;;;-10.33;65.21
7524;BME280;3803;51.666;7.630;2022-12-18T00:00:39;102341.66;;;-10.33;65.40
7524;BME280;3803;51.666;7.630;2022-12-18T00:01:02;102340.41;;;-10.30;64.89
7524;BME280;3803;51.666;7.630;2022-12-18T00:01:48;102333.88;;;-10.35;65.26
7524;BME280;3803;51.666;7.630;2022-12-18T00:02:09;102337.13;;;-10.36;65.24
7524;BME280;3803;51.666;7.630;2022-12-18T00:02:31;102330.91;;;-10.38;65.17
7524;BME280;3803;51.666;7.630;2022-12-18T00:02:52;102338.94;;;-10.35;65.00
7524;BME280;3803;51.666;7.630;2022-12-18T00:03:15;102330.22;;;-10.37;64.84
7524;BME280;3803;51.666;7.630;2022-12-18T00:03:35;102328.69;;;-10.42;64.89
7524;BME280;3803;51.666;7.630;2022-12-18T00:03:56;102349.81;;;-10.29;65.26
7524;BME280;3803;51.666;7.630;2022-12-18T00:04:22;102346.22;;;-10.31;65.02
7524;BME280;3803;51.666;7.630;2022-12-18T00:04:42;102340.75;;;-10.34;65.31
7524;BME280;3803;51.666;7.630;2022-12-18T00:05:03;102349.81;;;-10.29;65.15
7524;BME280;3803;51.666;7.630;2022-12-18T00:05:24;102331.38;;;-10.35;65.52
7524;BME280;3803;51.666;7.630;2022-12-18T00:05:52;102330.66;;;-10.34;64.84
7524;BME280;3803;51.666;7.630;2022-12-18T00:06:13;102334.78;;;-10.35;65.08
7524;BME280;3803;51.666;7.630;2022-12-18T00:06:34;102336.13;;;-10.31;64.99
7524;BME280;3803;51.666;7.630;2022-12-18T00:06:55;102332.06;;;-10.36;64.93
7524;BME280;3803;51.666;7.630;2022-12-18T00:07:16;102348.00;;;-10.30;65.14
7524;BME280;3803;51.666;7.630;2022-12-18T00:07:36;102338.94;;;-10.35;64.94
7524;BME280;3803;51.666;7.630;2022-12-18T00:07:57;102331.63;;;-10.39;64.73
7524;BME280;3803;51.666;7.630;2022-12-18T00:08:18;102340.84;;;-10.40;65.22
7524;BME280;3803;51.666;7.630;2022-12-18T00:08:40;102341.47;;;-10.35;64.55
7524;BME280;3803;51.666;7.630;2022-12-18T00:09:02;102341.03;;;-10.38;65.21
7524;BME280;3803;51.666;7.630;2022-12-18T00:09:23;102342.66;;;-10.39;64.81
7524;BME280;3803;51.666;7.630;2022-12-18T00:09:43;102341.50;;;-10.41;64.94
7524;BME280;3803;51.666;7.630;2022-12-18T00:10:04;102354.88;;;-10.29;65.06
7524;BME280;3803;51.666;7.630;2022-12-18T00:10:27;102345.81;;;-10.34;64.87
7524;BME280;3803;51.666;7.630;2022-12-18T00:10:47;102349.03;;;-10.35;64.97
7524;BME280;3803;51.666;7.630;2022-12-18T00:11:11;102343.53;;;-10.38;64.85
7524;BME280;3803;51.666;7.630;2022-12-18T00:11:32;102343.97;;;-10.35;65.19
7524;BME280;3803;51.666;7.630;2022-12-18T00:11:52;102330.06;;;-10.44;64.86
7524;BME280;3803;51.666;7.630;2022-12-18T00:12:13;102358.09;;;-10.30;65.13
7524;BME280;3803;51.666;7.630;2022-12-18T00:12:34;102349.75;;;-10.36;64.89
7524;BME280;3803;51.666;7.630;2022-12-18T00:12:54;102342.66;;;-10.39;64.92
7524;BME280;3803;51.666;7.630;2022-12-18T00:13:15;102339.91;;;-10.40;65.11
7524;BME280;3803;51.666;7.630;2022-12-18T00:13:35;102350.41;;;-10.37;64.62
7524;BME280;3803;51.666;7.630;2022-12-18T00:13:57;102358.84;;;-10.31;64.96
7524;BME280;3803;51.666;7.630;2022-12-18T00:14:18;102348.59;;;-10.38;65.00
7524;BME280;3803;51.666;7.630;2022-12-18T00:14:39;102348.81;;;-10.37;64.89
7524;BME280;3803;51.666;7.630;2022-12-18T00:15:00;102342.44;;;-10.40;65.01
7524;BME280;3803;51.666;7.630;2022-12-18T00:15:20;102331.22;;;-10.42;64.99
7524;BME280;3803;51.666;7.630;2022-12-18T00:15:41;102345.38;;;-10.37;64.93
7524;BME280;3803;51.666;7.630;2022-12-18T00:16:07;102353.66;;;-10.38;64.65
7524;BME280;3803;51.666;7.630;2022-12-18T00:16:29;102352.25;;;-10.36;64.79
7524;BME280;3803;51.666;7.630;2022-12-18T00:16:51;102349.53;;;-10.38;64.61
7524;BME280;3803;51.666;7.630;2022-12-18T00:17:12;102346.38;;;-10.42;64.79
7524;BME280;3803;51.666;7.630;2022-12-18T00:17:32;102350.50;;;-10.43;64.77
7524;BME280;3803;51.666;7.630;2022-12-18T00:17:53;102339.06;;;-10.46;64.65
7524;BME280;3803;51.666;7.630;2022-12-18T00:18:13;102352.53;;;-10.40;64.97
7524;BME280;3803;51.666;7.630;2022-12-18T00:18:34;102361.91;;;-10.39;64.63
7524;BME280;3803;51.666;7.630;2022-12-18T00:18:56;102359.19;;;-10.41;64.56
7524;BME280;3803;51.666;7.630;2022-12-18T00:19:19;102341.88;;;-10.51;64.49
7524;BME280;3803;51.666;7.630;2022-12-18T00:19:40;102356.47;;;-10.42;65.12
7524;BME280;3803;51.666;7.630;2022-12-18T00:20:01;102358.28;;;-10.41;64.70
7524;BME280;3803;51.666;7.630;2022-12-18T00:20:21;102348.25;;;-10.47;64.67
7524;BME280;3803;51.666;7.630;2022-12-18T00:20:45;102364.75;;;-10.43;64.87
7524;BME280;3803;51.666;7.630;2022-12-18T00:21:08;102360.66;;;-10.49;64.83
7524;BME280;3803;51.666;7.630;2022-12-18T00:21:30;102368.38;;;-10.41;64.98
7524;BME280;3803;51.666;7.630;2022-12-18T00:21:51;102358.84;;;-10.50;65.27
7524;BME280;3803;51.666;7.630;2022-12-18T00:22:12;102358.84;;;-10.50;64.97
7524;BME280;3803;51.666;7.630;2022-12-18T00:22:32;102366.81;;;-10.46;64.81
7524;BME280;3803;51.666;7.630;2022-12-18T00:22:53;102363.19;;;-10.49;64.74
7524;BME280;3803;51.666;7.630;2022-12-18T00:23:14;102360.66;;;-10.49;65.25
7524;BME280;3803;51.666;7.630;2022-12-18T00:23:36;102374.84;;;-10.43;64.73
7524;BME280;3803;51.666;7.630;2022-12-18T00:23:59;102367.94;;;-10.44;64.59
7524;BME280;3803;51.666;7.630;2022-12-18T00:24:20;102357.28;;;-10.55;65.06
7524;BME280;3803;51.666;7.630;2022-12-18T00:24:40;102373.97;;;-10.50;64.77
7524;BME280;3803;51.666;7.630;2022-12-18T00:25:03;102382.59;;;-10.42;64.81
7524;BME280;3803;51.666;7.630;2022-12-18T00:25:24;102365.97;;;-10.53;65.15
7524;BME280;3803;51.666;7.630;2022-12-18T00:25:44;102375.81;;;-10.49;64.95
7524;BME280;3803;51.666;7.630;2022-12-18T00:26:08;102387.47;;;-10.43;64.83
7524;BME280;3803;51.666;7.630;2022-12-18T00:26:32;102372.56;;;-10.48;64.78
7524;BME280;3803;51.666;7.630;2022-12-18T00:26:55;102382.41;;;-10.43;64.96
7524;BME280;3803;51.666;7.630;2022-12-18T00:27:16;102379.25;;;-10.48;64.79
7524;BME280;3803;51.666;7.630;2022-12-18T00:27:37;102359.81;;;-10.55;64.67
7524;BME280;3803;51.666;7.630;2022-12-18T00:27:57;102374.88;;;-10.49;65.18
7524;BME280;3803;51.666;7.630;2022-12-18T00:28:19;102377.41;;;-10.49;65.05
7524;BME280;3803;51.666;7.630;2022-12-18T00:28:41;102362.09;;;-10.56;64.93
7524;BME280;3803;51.666;7.630;2022-12-18T00:29:10;102370.13;;;-10.53;64.74
7524;BME280;3803;51.666;7.630;2022-12-18T00:29:31;102360.81;;;-10.60;64.88
7524;BME280;3803;51.666;7.630;2022-12-18T00:29:51;102358.94;;;-10.61;65.13
7524;BME280;3803;51.666;7.630;2022-12-18T00:30:12;102366.75;;;-10.59;65.08
7524;BME280;3803;51.666;7.630;2022-12-18T00:30:33;102356.22;;;-10.63;64.80
7524;BME280;3803;51.666;7.630;2022-12-18T00:31:09;102355.78;;;-10.66;64.83
7524;BME280;3803;51.666;7.630;2022-12-18T00:31:30;102354.91;;;-10.66;64.87
7524;BME280;3803;51.666;7.630;2022-12-18T00:31:51;102353.50;;;-10.64;64.99
7524;BME280;3803;51.666;7.630;2022-12-18T00:32:11;102365.84;;;-10.60;64.74
7524;BME280;3803;51.666;7.630;2022-12-18T00:32:32;102376.75;;;-10.54;65.09
7524;BME280;3803;51.666;7.630;2022-12-18T00:32:53;102358.06;;;-10.62;65.05
7524;BME280;3803;51.666;7.630;2022-12-18T00:33:14;102362.88;;;-10.63;65.20
7524;BME280;3803;51.666;7.630;2022-12-18T00:33:35;102374.25;;;-10.54;64.77
7524;BME280;3803;51.666;7.630;2022-12-18T00:33:56;102372.41;;;-10.55;64.95
7524;BME280;3803;51.666;7.630;2022-12-18T00:34:17;102367.16;;;-10.56;65.21
7524;BME280;3803;51.666;7.630;2022-12-18T00:34:38;102355.09;;;-10.65;65.38
7524;BME280;3803;51.666;7.630;2022-12-18T00:35:06;102359.38;;;-10.58;64.80
7524;BME280;3803;51.666;7.630;2022-12-18T00:35:27;102362.53;;;-10.53;65.26
7524;BME280;3803;51.666;7.630;2022-12-18T00:35:48;102363.75;;;-10.57;65.20
7524;BME280;3803;51.666;7.630;2022-12-18T00:36:14;102349.16;;;-10.65;65.12
7524;BME280;3803;51.666;7.630;2022-12-18T00:36:35;102354.41;;;-10.64;64.80
7524;BME280;3803;51.666;7.630;2022-12-18T00:36:56;102366.66;;;-10.54;64.98
7524;BME280;3803;51.666;7.630;2022-12-18T00:37:16;102350.25;;;-10.63;64.75
7524;BME280;3803;51.666;7.630;2022-12-18T00:37:37;102355.94;;;-10.58;64.91
7524;BME280;3803;51.666;7.630;2022-12-18T00:37:58;102345.91;;;-10.64;64.66
7524;BME280;3803;51.666;7.630;2022-12-18T00:38:19;102356.66;;;-10.59;65.14
7524;BME280;3803;51.666;7.630;2022-12-18T00:38:40;102364.84;;;-10.55;64.47
7524;BME280;3803;51.666;7.630;2022-12-18T00:39:03;102365.06;;;-10.53;64.38
7524;BME280;3803;51.666;7.630;2022-12-18T00:39:24;102355.75;;;-10.60;65.02
7524;BME280;3803;51.666;7.630;2022-12-18T00:39:45;102361.69;;;-10.59;64.80
7524;BME280;3803;51.666;7.630;2022-12-18T00:40:06;102363.75;;;-10.57;64.69
7524;BME280;3803;51.666;7.630;2022-12-18T00:40:31;102363.31;;;-10.60;64.73
7524;BME280;3803;51.666;7.630;2022-12-18T00:40:52;102361.91;;;-10.58;64.62
7524;BME280;3803;51.666;7.630;2022-12-18T00:41:14;102355.09;;;-10.65;64.96
7524;BME280;3803;51.666;7.630;2022-12-18T00:41:58;102359.47;;;-10.64;64.83
7524;BME280;3803;51.666;7.630;2022-12-18T00:42:37;102356.28;;;-10.68;64.59
7524;BME280;3803;51.666;7.630;2022-12-18T00:43:16;102359.94;;;-10.66;65.02
7524;BME280;3803;51.666;7.630;2022-12-18T00:43:38;102340.50;;;-10.73;64.97
7524;BME280;3803;51.666;7.630;2022-12-18T00:43:58;102354.19;;;-10.65;64.65
7524;BME280;3803;51.666;7.630;2022-12-18T00:44:19;102363.50;;;-10.58;64.90
7524;BME280;3803;51.666;7.630;2022-12-18T00:44:40;102354.69;;;-10.68;64.79
7524;BME280;3803;51.666;7.630;2022-12-18T00:45:00;102343.25;;;-10.71;64.73
7524;BME280;3803;51.666;7.630;2022-12-18T00:45:26;102348.50;;;-10.70;64.99
7524;BME280;3803;51.666;7.630;2022-12-18T00:45:47;102347.09;;;-10.68;64.88
7524;BME280;3803;51.666;7.630;2022-12-18T00:46:08;102349.41;;;-10.69;65.01
7524;BME280;3803;51.666;7.630;2022-12-18T00:46:28;102341.66;;;-10.71;64.87
7524;BME280;3803;51.666;7.630;2022-12-18T00:46:49;102347.59;;;-10.70;64.96
7524;BME280;3803;51.666;7.630;2022-12-18T00:47:10;102360.56;;;-10.62;65.07
7524;BME280;3803;51.666;7.630;2022-12-18T00:47:30;102353.06;;;-10.67;64.41
7524;BME280;3803;51.666;7.630;2022-12-18T00:47:51;102342.34;;;-10.72;64.69
7524;BME280;3803;51.666;7.630;2022-12-18T00:48:24;102347.59;;;-10.70;64.69
7524;BME280;3803;51.666;7.630;2022-12-18T00:48:44;102351.22;;;-10.68;64.70
7524;BME280;3803;51.666;7.630;2022-12-18T00:49:05;102348.22;;;-10.66;64.48
7524;BME280;3803;51.666;7.630;2022-12-18T00:49:26;102367.94;;;-10.63;64.53
7524;BME280;3803;51.666;7.630;2022-12-18T00:49:46;102352.16;;;-10.68;64.76
7524;BME280;3803;51.666;7.630;2022-12-18T00:50:07;102359.94;;;-10.66;64.40
7524;BME280;3803;51.666;7.630;2022-12-18T00:50:28;102351.94;;;-10.69;64.19
7524;BME280;3803;51.666;7.630;2022-12-18T00:50:49;102366.81;;;-10.65;64.67
7524;BME280;3803;51.666;7.630;2022-12-18T00:51:10;102351.75;;;-10.71;64.54
7524;BME280;3803;51.666;7.630;2022-12-18T00:51:31;102349.22;;;-10.71;64.41
7524;BME280;3803;51.666;7.630;2022-12-18T00:51:52;102360.84;;;-10.66;64.55
7524;BME280;3803;51.666;7.630;2022-12-18T00:52:15;102354.91;;;-10.66;64.87
7524;BME280;3803;51.666;7.630;2022-12-18T00:52:36;102367.69;;;-10.65;64.51
7524;BME280;3803;51.666;7.630;2022-12-18T00:52:59;102353.63;;;-10.76;64.46
7524;BME280;3803;51.666;7.630;2022-12-18T00:53:20;102364.78;;;-10.68;64.83
7524;BME280;3803;51.666;7.630;2022-12-18T00:53:41;102359.50;;;-10.69;64.17
7524;BME280;3803;51.666;7.630;2022-12-18T00:54:10;102357.25;;;-10.73;64.81
7524;BME280;3803;51.666;7.630;2022-12-18T00:54:31;102377.31;;;-10.62;64.60
7524;BME280;3803;51.666;7.630;2022-12-18T00:55:19;102378.03;;;-10.63;64.46
7524;BME280;3803;51.666;7.630;2022-12-18T00:55:41;102364.53;;;-10.69;64.88
7524;BME280;3803;51.666;7.630;2022-12-18T00:56:02;102383.28;;;-10.62;64.90
7524;BME280;3803;51.666;7.630;2022-12-18T00:56:23;102375.50;;;-10.63;64.45
7524;BME280;3803;51.666;7.630;2022-12-18T00:56:44;102351.34;;;-10.80;64.64
7524;BME280;3803;51.666;7.630;2022-12-18T00:57:04;102363.72;;;-10.76;64.78
7524;BME280;3803;51.666;7.630;2022-12-18T00:57:25;102356.81;;;-10.77;64.39
7524;BME280;3803;51.666;7.630;2022-12-18T00:57:46;102357.97;;;-10.74;64.48
7524;BME280;3803;51.666;7.630;2022-12-18T00:58:07;102348.44;;;-10.83;64.74
7524;BME280;3803;51.666;7.630;2022-12-18T00:58:29;102363.72;;;-10.76;64.68
7524;BME280;3803;51.666;7.630;2022-12-18T00:58:50;102346.78;;;-10.82;64.46
7524;BME280;3803;51.666;7.630;2022-12-18T00:59:11;102358.44;;;-10.77;64.35
7524;BME280;3803;51.666;7.630;2022-12-18T00:59:33;102358.22;;;-10.79;64.60
7524;BME280;3803;51.666;7.630;2022-12-18T00:59:54;102368.75;;;-10.76;64.55
7524;BME280;3803;51.666;7.630;2022-12-18T01:00:15;102370.59;;;-10.74;64.78
7524;BME280;3803;51.666;7.630;2022-12-18T01:00:36;102363.72;;;-10.76;64.93
7524;BME280;3803;51.666;7.630;2022-12-18T01:00:57;102378.78;;;-10.70;64.35
7524;BME280;3803;51.666;7.630;2022-12-18T01:01:17;102373.03;;;-10.69;64.62
7524;BME280;3803;51.666;7.630;2022-12-18T01:01:38;102351.13;;;-10.81;64.97
7524;BME280;3803;51.666;7.630;2022-12-18T01:02:00;102364.84;;;-10.73;64.86
7524;BME280;3803;51.666;7.630;2022-12-18T01:02:20;102362.56;;;-10.78;64.81
7524;BME280;3803;51.666;7.630;2022-12-18T01:02:42;102343.16;;;-10.84;64.76
7524;BME280;3803;51.666;7.630;2022-12-18T01:03:03;102355.00;;;-10.78;64.57
7524;BME280;3803;51.666;7.630;2022-12-18T01:03:24;102354.81;;;-10.79;65.00
7524;BME280;3803;51.666;7.630;2022-12-18T01:03:46;102352.06;;;-10.81;64.71
7524;BME280;3803;51.666;7.630;2022-12-18T01:04:24;102350.44;;;-10.80;64.65
7524;BME280;3803;51.666;7.630;2022-12-18T01:04:45;102346.59;;;-10.84;64.45
7524;BME280;3803;51.666;7.630;2022-12-18T01:05:09;102366.19;;;-10.70;64.30
7524;BME280;3803;51.666;7.630;2022-12-18T01:05:30;102345.84;;;-10.77;64.69
7524;BME280;3803;51.666;7.630;2022-12-18T01:05:51;102342.69;;;-10.82;64.43
7524;BME280;3803;51.666;7.630;2022-12-18T01:06:14;102362.03;;;-10.69;64.39
7524;BME280;3803;51.666;7.630;2022-12-18T01:06:35;102349.06;;;-10.78;64.42
7524;BME280;3803;51.666;7.630;2022-12-18T01:06:55;102358.38;;;-10.71;64.61
7524;BME280;3803;51.666;7.630;2022-12-18T01:07:16;102358.38;;;-10.71;64.61
7524;BME280;3803;51.666;7.630;2022-12-18T01:07:38;102349.75;;;-10.79;64.65
7524;BME280;3803;51.666;7.630;2022-12-18T01:07:59;102350.88;;;-10.77;64.79
7524;BME280;3803;51.666;7.630;2022-12-18T01:08:19;102349.25;;;-10.77;64.72
7524;BME280;3803;51.666;7.630;2022-12-18T01:08:40;102347.25;;;-10.79;64.41
7524;BME280;3803;51.666;7.630;2022-12-18T01:09:01;102347.66;;;-10.76;64.99
7524;BME280;3803;51.666;7.630;2022-12-18T01:09:21;102357.25;;;-10.73;64.77
7524;BME280;3803;51.666;7.630;2022-12-18T01:09:42;102338.34;;;-10.83;64.83
7524;BME280;3803;51.666;7.630;2022-12-18T01:10:04;102350.41;;;-10.74;64.80
7524;BME280;3803;51.666;7.630;2022-12-18T01:10:25;102365.69;;;-10.67;64.86
7524;BME280;3803;51.666;7.630;2022-12-18T01:10:46;102355.44;;;-10.74;65.04
7524;BME280;3803;51.666;7.630;2022-12-18T01:11:12;102362.72;;;-10.70;64.87
7524;BME280;3803;51.666;7.630;2022-12-18T01:11:33;102360.91;;;-10.71;64.38
7524;BME280;3803;51.666;7.630;2022-12-18T01:11:56;102367.50;;;-10.66;64.91
7524;BME280;3803;51.666;7.630;2022-12-18T01:13:16;102347.88;;;-10.74;64.44
7524;BME280;3803;51.666;7.630;2022-12-18T01:13:37;102351.78;;;-10.77;64.81
7524;BME280;3803;51.666;7.630;2022-12-18T01:13:59;102354.75;;;-10.73;64.86
7524;BME280;3803;51.666;7.630;2022-12-18T01:14:20;102360.66;;;-10.67;64.22
7524;BME280;3803;51.666;7.630;2022-12-18T01:14:41;102363.44;;;-10.71;64.56
7524;BME280;3803;51.666;7.630;2022-12-18T01:15:02;102356.09;;;-10.70;64.50
7524;BME280;3803;51.666;7.630;2022-12-18T01:15:23;102351.09;;;-10.76;64.35
7524;BME280;3803;51.666;7.630;2022-12-18T01:15:50;102367.28;;;-10.68;64.80
7524;BME280;3803;51.666;7.630;2022-12-18T01:16:12;102341.69;;;-10.77;64.77
7524;BME280;3803;51.666;7.630;2022-12-18T01:16:33;102349.25;;;-10.77;64.43
7524;BME280;3803;51.666;7.630;2022-12-18T01:16:54;102347.66;;;-10.76;64.33
7524;BME280;3803;51.666;7.630;2022-12-18T01:17:14;102353.34;;;-10.71;64.42
7524;BME280;3803;51.666;7.630;2022-12-18T01:17:35;102358.59;;;-10.70;64.71
7524;BME280;3803;51.666;7.630;2022-12-18T01:17:56;102348.13;;;-10.79;64.51
7524;BME280;3803;51.666;7.630;2022-12-18T01:18:16;102343.78;;;-10.80;64.29
7524;BME280;3803;51.666;7.630;2022-12-18T01:18:37;102361.88;;;-10.77;64.07
7524;BME280;3803;51.666;7.630;2022-12-18T01:18:58;102356.34;;;-10.74;64.21
7524;BME280;3803;51.666;7.630;2022-12-18T01:19:20;102347.50;;;-10.83;64.63
7524;BME280;3803;51.666;7.630;2022-12-18T01:19:41;102339.50;;;-10.86;64.29
7524;BME280;3803;51.666;7.630;2022-12-18T01:20:03;102347.03;;;-10.81;64.61
7524;BME280;3803;51.666;7.630;2022-12-18T01:20:23;102347.28;;;-10.85;64.44
7524;BME280;3803;51.666;7.630;2022-12-18T01:20:44;102341.81;;;-10.88;64.08
7524;BME280;3803;51.666;7.630;2022-12-18T01:21:09;102352.53;;;-10.83;64.14
7524;BME280;3803;51.666;7.630;2022-12-18T01:21:31;102365.38;;;-10.82;64.89
7524;BME280;3803;51.666;7.630;2022-12-18T01:21:51;102344.19;;;-10.95;64.42
7524;BME280;3803;51.666;7.630;2022-12-18T01:22:12;102356.03;;;-10.88;64.31
7524;BME280;3803;51.666;7.630;2022-12-18T01:22:33;102348.97;;;-10.91;64.36
7524;BME280;3803;51.666;7.630;2022-12-18T01:22:54;102362.00;;;-10.88;64.67
7524;BME280;3803;51.666;7.630;2022-12-18T01:23:14;102356.94;;;-10.88;64.45
7524;BME280;3803;51.666;7.630;2022-12-18T01:23:35;102354.69;;;-10.92;64.64
7524;BME280;3803;51.666;7.630;2022-12-18T01:23:56;102346.00;;;-10.94;64.12
7524;BME280;3803;51.666;7.630;2022-12-18T01:24:17;102354.69;;;-10.92;64.73
7524;BME280;3803;51.666;7.630;2022-12-18T01:24:38;102365.22;;;-10.89;64.36
7524;BME280;3803;51.666;7.630;2022-12-18T01:24:58;102348.31;;;-10.96;64.52
7524;BME280;3803;51.666;7.630;2022-12-18T01:25:19;102351.03;;;-10.94;64.52
7524;BME280;3803;51.666;7.630;2022-12-18T01:25:39;102364.28;;;-10.90;64.73
7524;BME280;3803;51.666;7.630;2022-12-18T01:26:05;102366.63;;;-10.91;64.48
7524;BME280;3803;51.666;7.630;2022-12-18T01:26:28;102351.53;;;-10.97;64.36
7524;BME280;3803;51.666;7.630;2022-12-18T01:26:58;102357.50;;;-10.96;64.47
7524;BME280;3803;51.666;7.630;2022-12-18T01:27:19;102353.56;;;-10.94;64.34
7524;BME280;3803;51.666;7.630;2022-12-18T01:27:39;102349.94;;;-10.96;64.74
7524;BME280;3803;51.666;7.630;2022-12-18T01:28:00;102358.34;;;-10.90;64.28
7524;BME280;3803;51.666;7.630;2022-12-18T01:28:29;102368.44;;;-10.90;64.74
7524;BME280;3803;51.666;7.630;2022-12-18T01:28:50;102364.78;;;-10.92;64.81
7524;BME280;3803;51.666;7.630;2022-12-18T01:29:11;102359.72;;;-10.92;64.76
7524;BME280;3803;51.666;7.630;2022-12-18T01:29:31;102358.13;;;-10.92;64.31
7524;BME280;3803;51.666;7.630;2022-12-18T01:29:52;102358.34;;;-10.90;64.60
7524;BME280;3803;51.666;7.630;2022-12-18T01:30:13;102355.13;;;-10.89;64.74
7524;BME280;3803;51.666;7.630;2022-12-18T01:30:34;102355.34;;;-10.87;64.48
7524;BME280;3803;51.666;7.630;2022-12-18T01:30:55;102350.78;;;-10.90;64.55
7524;BME280;3803;51.666;7.630;2022-12-18T01:31:24;102369.72;;;-10.81;64.55
7524;BME280;3803;51.666;7.630;2022-12-18T01:31:45;102355.13;;;-10.89;64.20
7524;BME280;3803;51.666;7.630;2022-12-18T01:32:06;102343.47;;;-10.94;64.51
7524;BME280;3803;51.666;7.630;2022-12-18T01:32:30;102366.78;;;-10.84;64.57
7524;BME280;3803;51.666;7.630;2022-12-18T01:32:50;102351.50;;;-10.91;64.34
7524;BME280;3803;51.666;7.630;2022-12-18T01:33:31;102366.50;;;-10.80;63.94
7524;BME280;3803;51.666;7.630;2022-12-18T01:33:52;102357.88;;;-10.87;64.36
7524;BME280;3803;51.666;7.630;2022-12-18T01:34:13;102340.69;;;-10.90;64.37
7524;BME280;3803;51.666;7.630;2022-12-18T01:34:36;102340.47;;;-10.92;64.13
7524;BME280;3803;51.666;7.630;2022-12-18T01:34:58;102341.41;;;-10.91;64.23
7524;BME280;3803;51.666;7.630;2022-12-18T01:35:18;102362.41;;;-10.85;64.45
7524;BME280;3803;51.666;7.630;2022-12-18T01:35:41;102345.03;;;-10.89;64.42
7524;BME280;3803;51.666;7.630;2022-12-18T01:36:02;102342.78;;;-10.93;64.15
7524;BME280;3803;51.666;7.630;2022-12-18T01:36:31;102367.91;;;-10.82;64.38
7524;BME280;3803;51.666;7.630;2022-12-18T01:36:52;102353.72;;;-10.87;64.50
7524;BME280;3803;51.666;7.630;2022-12-18T01:37:13;102358.34;;;-10.90;64.22
7524;BME280;3803;51.666;7.630;2022-12-18T01:37:33;102345.59;;;-10.97;64.24
7524;BME280;3803;51.666;7.630;2022-12-18T01:37:55;102345.81;;;-10.96;64.44
7524;BME280;3803;51.666;7.630;2022-12-18T01:38:15;102353.31;;;-10.90;64.11
7524;BME280;3803;51.666;7.630;2022-12-18T01:38:36;102345.28;;;-10.93;64.29
7524;BME280;3803;51.666;7.630;2022-12-18T01:38:59;102378.00;;;-10.82;64.45
7524;BME280;3803;51.666;7.630;2022-12-18T01:39:20;102358.34;;;-10.90;63.91
7524;BME280;3803;51.666;7.630;2022-12-18T01:39:40;102346.44;;;-10.91;64.46
7524;BME280;3803;51.666;7.630;2022-12-18T01:40:01;102363.81;;;-10.87;64.18
7524;BME280;3803;51.666;7.630;2022-12-18T01:40:22;102364.75;;;-10.86;64.57
7524;BME280;3803;51.666;7.630;2022-12-18T01:40:45;102351.50;;;-10.91;64.46
7524;BME280;3803;51.666;7.630;2022-12-18T01:41:08;102356.25;;;-10.87;64.09
7524;BME280;3803;51.666;7.630;2022-12-18T01:41:30;102347.41;;;-10.96;64.01
7524;BME280;3803;51.666;7.630;2022-12-18T01:42:13;102370.19;;;-10.83;64.42
7524;BME280;3803;51.666;7.630;2022-12-18T01:42:35;102343.28;;;-10.96;64.08
7524;BME280;3803;51.666;7.630;2022-12-18T01:42:55;102360.59;;;-10.86;64.34
7524;BME280;3803;51.666;7.630;2022-12-18T01:43:16;102351.03;;;-10.94;64.17
7524;BME280;3803;51.666;7.630;2022-12-18T01:43:47;102350.34;;;-10.93;63.88
7524;BME280;3803;51.666;7.630;2022-12-18T01:45:33;102353.25;;;-10.84;64.39
7524;BME280;3803;51.666;7.630;2022-12-18T01:45:55;102341.88;;;-10.94;64.36
7524;BME280;3803;51.666;7.630;2022-12-18T01:46:21;102331.34;;;-10.97;63.87
7524;BME280;3803;51.666;7.630;2022-12-18T01:46:45;102348.25;;;-10.90;64.18
7524;BME280;3803;51.666;7.630;2022-12-18T01:47:05;102339.06;;;-10.90;64.26
7524;BME280;3803;51.666;7.630;2022-12-18T01:47:56;102346.88;;;-10.88;64.14
7524;BME280;3803;51.666;7.630;2022-12-18T01:48:16;102340.97;;;-10.94;64.00
7524;BME280;3803;51.666;7.630;2022-12-18T01:48:38;102347.34;;;-10.91;64.36
7524;BME280;3803;51.666;7.630;2022-12-18T01:49:00;102335.91;;;-10.94;64.53
7524;BME280;3803;51.666;7.630;2022-12-18T01:49:22;102336.38;;;-10.97;64.40
7524;BME280;3803;51.666;7.630;2022-12-18T01:49:42;102346.69;;;-10.95;63.90
7524;BME280;3803;51.666;7.630;2022-12-18T01:50:52;102344.41;;;-10.94;64.44
7524;BME280;3803;51.666;7.630;2022-12-18T01:51:12;102355.13;;;-10.89;63.83
7524;BME280;3803;51.666;7.630;2022-12-18T01:51:34;102347.81;;;-10.93;63.96
7524;BME280;3803;51.666;7.630;2022-12-18T01:51:55;102343.47;;;-10.94;64.31
7524;BME280;3803;51.666;7.630;2022-12-18T01:52:17;102334.56;;;-10.98;64.37
7524;BME280;3803;51.666;7.630;2022-12-18T01:52:38;102350.09;;;-10.89;64.28
7524;BME280;3803;51.666;7.630;2022-12-18T01:53:09;102341.59;;;-10.90;64.31
7524;BME280;3803;51.666;7.630;2022-12-18T01:53:31;102350.78;;;-10.90;64.07
7524;BME280;3803;51.666;7.630;2022-12-18T01:53:52;102352.38;;;-10.91;64.41
7524;BME280;3803;51.666;7.630;2022-12-18T01:54:12;102352.84;;;-10.93;64.34
7524;BME280;3803;51.666;7.630;2022-12-18T01:54:33;102360.16;;;-10.89;63.77
7524;BME280;3803;51.666;7.630;2022-12-18T01:54:54;102355.13;;;-10.89;63.90
7524;BME280;3803;51.666;7.630;2022-12-18T01:55:18;102344.41;;;-10.94;64.45
7524;BME280;3803;51.666;7.630;2022-12-18T01:56:00;102355.28;;;-10.82;63.82
7524;BME280;3803;51.666;7.630;2022-12-18T01:56:21;102353.31;;;-10.90;63.89
7524;BME280;3803;51.666;7.630;2022-12-18T01:56:43;102358.78;;;-10.87;64.18
7524;BME280;3803;51.666;7.630;2022-12-18T01:57:04;102350.50;;;-10.86;63.77
7524;BME280;3803;51.666;7.630;2022-12-18T01:57:25;102352.31;;;-10.85;63.94
7524;BME280;3803;51.666;7.630;2022-12-18T01:57:46;102349.16;;;-10.90;63.67
7524;BME280;3803;51.666;7.630;2022-12-18T01:58:07;102349.44;;;-10.94;63.38
7524;BME280;3803;51.666;7.630;2022-12-18T01:58:50;102345.59;;;-10.97;63.91
7524;BME280;3803;51.666;7.630;2022-12-18T01:59:13;102348.31;;;-10.96;64.12
7524;BME280;3803;51.666;7.630;2022-12-18T01:59:35;102344.88;;;-10.96;63.75
7524;BME280;3803;51.666;7.630;2022-12-18T02:00:01;102351.75;;;-10.95;63.94
7524;BME280;3803;51.666;7.630;2022-12-18T02:00:33;102366.13;;;-10.88;64.28
7524;BME280;3803;51.666;7.630;2022-12-18T02:00:54;102365.69;;;-10.92;64.16
7524;BME280;3803;51.666;7.630;2022-12-18T02:01:17;102370.25;;;-10.89;64.14
7524;BME280;3803;51.666;7.630;2022-12-18T02:01:37;102349.28;;;-11.01;63.89
7524;BME280;3803;51.666;7.630;2022-12-18T02:01:59;102370.03;;;-10.91;63.46
7524;BME280;3803;51.666;7.630;2022-12-18T02:02:20;102357.06;;;-10.99;63.68